SBPL/PNZ METAR and TAF weather

Enter ICAO airport designator
Station Type Date Time Source
SBPL METAR 2019/06/26 21:00 UTC NOAA

SBPL 262100Z 15007KT CAVOK 28/15 Q1015


Station Type Date Time Source
SBPL Decoded METAR 2019/06/26 21:00 UTC NOAA

Petrolina , Brazil (SBPL) 09-21S 040-33W
Jun 26, 2019 - 05:00 PM EDT / 2019.06.26 2100 UTC
Wind: from the SSE (150 degrees) at 8 MPH (7 KT):0
Visibility: greater than 7 mile(s):0
Temperature: 82 F (28 C)
Dew Point: 59 F (15 C)
Relative Humidity: 45%
Pressure (altimeter): 29.97 in. Hg (1015 hPa)
ob: SBPL 262100Z 15007KT CAVOK 28/15 Q1015
cycle: 21

Station Type Date Time Source
SBPL TAF 2019/06/26 18:54 UTC NOAA

TAF SBPL 261600Z 2618/2706 15015KT 9999 SCT035 TX32/2618Z TN21/2705Z
BECMG 2623/2701 16010KT CAVOK
RMK PCQ

Example: see airport list